sensor_id;sensor_type;location;lat;lon;timestamp;temperature;humidity
22974;DHT22;11653;50.848;4.584;2023-12-29T00:01:47;11.70;99.90
22974;DHT22;11653;50.848;4.584;2023-12-29T00:04:13;11.70;99.90
22974;DHT22;11653;50.848;4.584;2023-12-29T00:06:40;11.70;99.90
22974;DHT22;11653;50.848;4.584;2023-12-29T00:09:06;11.80;99.90
22974;DHT22;11653;50.848;4.584;2023-12-29T00:11:33;11.70;99.90
22974;DHT22;11653;50.848;4.584;2023-12-29T00:13:59;11.80;99.90
22974;DHT22;11653;50.848;4.584;2023-12-29T00:16:27;11.70;99.90
22974;DHT22;11653;50.848;4.584;2023-12-29T00:18:53;11.60;99.90
22974;DHT22;11653;50.848;4.584;2023-12-29T00:21:18;11.60;99.90
22974;DHT22;11653;50.848;4.584;2023-12-29T00:23:44;11.70;99.90
22974;DHT22;11653;50.848;4.584;2023-12-29T00:26:10;11.70;99.90
22974;DHT22;11653;50.848;4.584;2023-12-29T00:28:35;11.70;99.90
22974;DHT22;11653;50.848;4.584;2023-12-29T00:31:06;11.70;99.90
22974;DHT22;11653;50.848;4.584;2023-12-29T00:33:31;11.70;99.90
22974;DHT22;11653;50.848;4.584;2023-12-29T00:35:58;11.70;99.90
22974;DHT22;11653;50.848;4.584;2023-12-29T00:38:25;11.90;99.90
22974;DHT22;11653;50.848;4.584;2023-12-29T00:40:51;11.80;99.90
22974;DHT22;11653;50.848;4.584;2023-12-29T00:43:17;11.70;99.90
22974;DHT22;11653;50.848;4.584;2023-12-29T00:45:43;11.70;99.90
22974;DHT22;11653;50.848;4.584;2023-12-29T00:48:08;11.70;99.90
22974;DHT22;11653;50.848;4.584;2023-12-29T00:50:34;11.70;99.90
22974;DHT22;11653;50.848;4.584;2023-12-29T00:53:00;11.60;99.90
22974;DHT22;11653;50.848;4.584;2023-12-29T00:55:26;11.60;99.90
22974;DHT22;11653;50.848;4.584;2023-12-29T00:57:51;11.70;99.90
22974;DHT22;11653;50.848;4.584;2023-12-29T01:00:17;11.70;99.90
22974;DHT22;11653;50.848;4.584;2023-12-29T01:02:43;11.70;99.90
22974;DHT22;11653;50.848;4.584;2023-12-29T01:05:08;11.70;99.90
22974;DHT22;11653;50.848;4.584;2023-12-29T01:07:34;11.70;99.90
22974;DHT22;11653;50.848;4.584;2023-12-29T01:10:00;11.70;99.90
22974;DHT22;11653;50.848;4.584;2023-12-29T01:12:26;11.60;99.90
22974;DHT22;11653;50.848;4.584;2023-12-29T01:14:52;11.60;99.90
22974;DHT22;11653;50.848;4.584;2023-12-29T01:17:17;11.50;99.90
22974;DHT22;11653;50.848;4.584;2023-12-29T01:19:43;11.60;99.90
22974;DHT22;11653;50.848;4.584;2023-12-29T01:22:08;11.60;99.90
22974;DHT22;11653;50.848;4.584;2023-12-29T01:24:34;11.60;99.90
22974;DHT22;11653;50.848;4.584;2023-12-29T01:27:00;11.70;99.90
22974;DHT22;11653;50.848;4.584;2023-12-29T01:29:25;11.70;99.90
22974;DHT22;11653;50.848;4.584;2023-12-29T01:31:51;11.60;99.90
22974;DHT22;11653;50.848;4.584;2023-12-29T01:34:17;11.60;99.90
22974;DHT22;11653;50.848;4.584;2023-12-29T01:36:42;11.60;99.90
22974;DHT22;11653;50.848;4.584;2023-12-29T01:39:08;11.60;99.90
22974;DHT22;11653;50.848;4.584;2023-12-29T01:41:34;11.60;99.90
22974;DHT22;11653;50.848;4.584;2023-12-29T01:46:26;11.60;99.90
22974;DHT22;11653;50.848;4.584;2023-12-29T01:48:53;11.70;99.90
22974;DHT22;11653;50.848;4.584;2023-12-29T01:51:21;11.70;99.90
22974;DHT22;11653;50.848;4.584;2023-12-29T01:53:49;11.70;99.90
22974;DHT22;11653;50.848;4.584;2023-12-29T01:56:16;11.70;99.90
22974;DHT22;11653;50.848;4.584;2023-12-29T01:58:43;11.80;99.90
22974;DHT22;11653;50.848;4.584;2023-12-29T02:01:08;11.80;99.90
22974;DHT22;11653;50.848;4.584;2023-12-29T02:03:35;11.70;99.90
22974;DHT22;11653;50.848;4.584;2023-12-29T02:06:01;11.60;99.90
22974;DHT22;11653;50.848;4.584;2023-12-29T02:08:28;11.70;99.90
22974;DHT22;11653;50.848;4.584;2023-12-29T02:10:53;11.70;99.90
22974;DHT22;11653;50.848;4.584;2023-12-29T02:13:20;11.80;99.90
22974;DHT22;11653;50.848;4.584;2023-12-29T02:15:52;11.80;99.90
22974;DHT22;11653;50.848;4.584;2023-12-29T02:18:19;11.80;99.90
22974;DHT22;11653;50.848;4.584;2023-12-29T02:20:46;11.80;99.90
22974;DHT22;11653;50.848;4.584;2023-12-29T02:23:11;11.70;99.90
22974;DHT22;11653;50.848;4.584;2023-12-29T02:25:37;11.70;99.90
22974;DHT22;11653;50.848;4.584;2023-12-29T02:28:20;11.70;99.90
22974;DHT22;11653;50.848;4.584;2023-12-29T02:33:19;11.70;99.90
22974;DHT22;11653;50.848;4.584;2023-12-29T02:35:46;11.70;99.90
22974;DHT22;11653;50.848;4.584;2023-12-29T02:38:14;11.70;99.90
22974;DHT22;11653;50.848;4.584;2023-12-29T02:40:40;11.70;99.90
22974;DHT22;11653;50.848;4.584;2023-12-29T02:43:08;11.70;99.90
22974;DHT22;11653;50.848;4.584;2023-12-29T02:45:34;11.70;99.90
22974;DHT22;11653;50.848;4.584;2023-12-29T02:48:00;11.70;99.90
22974;DHT22;11653;50.848;4.584;2023-12-29T02:50:25;11.80;99.90
22974;DHT22;11653;50.848;4.584;2023-12-29T02:52:51;11.80;99.90
22974;DHT22;11653;50.848;4.584;2023-12-29T02:55:17;11.70;99.90
22974;DHT22;11653;50.848;4.584;2023-12-29T02:57:42;11.70;99.90
22974;DHT22;11653;50.848;4.584;2023-12-29T03:00:08;11.70;99.90
22974;DHT22;11653;50.848;4.584;2023-12-29T03:02:34;11.60;99.90
22974;DHT22;11653;50.848;4.584;2023-12-29T03:05:00;11.60;99.90
22974;DHT22;11653;50.848;4.584;2023-12-29T03:07:26;11.60;99.90
22974;DHT22;11653;50.848;4.584;2023-12-29T03:09:51;11.60;99.90
22974;DHT22;11653;50.848;4.584;2023-12-29T03:12:17;11.60;99.90
22974;DHT22;11653;50.848;4.584;2023-12-29T03:14:44;11.50;99.90
22974;DHT22;11653;50.848;4.584;2023-12-29T03:17:10;11.50;99.90
22974;DHT22;11653;50.848;4.584;2023-12-29T03:19:36;11.50;99.90
22974;DHT22;11653;50.848;4.584;2023-12-29T03:22:01;11.60;99.90
22974;DHT22;11653;50.848;4.584;2023-12-29T03:24:28;11.60;99.90
22974;DHT22;11653;50.848;4.584;2023-12-29T03:26:54;11.60;99.90
22974;DHT22;11653;50.848;4.584;2023-12-29T03:29:20;11.50;99.90
22974;DHT22;11653;50.848;4.584;2023-12-29T03:31:46;11.50;99.90
22974;DHT22;11653;50.848;4.584;2023-12-29T03:34:11;11.50;99.90
22974;DHT22;11653;50.848;4.584;2023-12-29T03:36:37;11.50;99.90
22974;DHT22;11653;50.848;4.584;2023-12-29T03:39:03;11.40;99.90
22974;DHT22;11653;50.848;4.584;2023-12-29T03:41:28;11.40;99.90
22974;DHT22;11653;50.848;4.584;2023-12-29T03:43:54;11.40;99.90
22974;DHT22;11653;50.848;4.584;2023-12-29T03:46:21;11.40;99.90
22974;DHT22;11653;50.848;4.584;2023-12-29T03:48:48;11.40;99.90
22974;DHT22;11653;50.848;4.584;2023-12-29T03:51:18;11.30;99.90
22974;DHT22;11653;50.848;4.584;2023-12-29T03:53:44;11.40;99.90
22974;DHT22;11653;50.848;4.584;2023-12-29T03:56:14;11.30;99.90
22974;DHT22;11653;50.848;4.584;2023-12-29T03:58:40;11.30;99.90
22974;DHT22;11653;50.848;4.584;2023-12-29T04:01:10;11.30;99.90
22974;DHT22;11653;50.848;4.584;2023-12-29T04:03:37;11.40;99.90
22974;DHT22;11653;50.848;4.584;2023-12-29T04:06:02;11.40;99.90
22974;DHT22;11653;50.848;4.584;2023-12-29T04:08:28;11.30;99.90
22974;DHT22;11653;50.848;4.584;2023-12-29T04:10:54;11.30;99.90
22974;DHT22;11653;50.848;4.584;2023-12-29T04:13:19;11.30;99.90
22974;DHT22;11653;50.848;4.584;2023-12-29T04:15:45;11.20;99.90
22974;DHT22;11653;50.848;4.584;2023-12-29T04:18:11;11.20;99.90
22974;DHT22;11653;50.848;4.584;2023-12-29T04:20:36;11.20;99.90
22974;DHT22;11653;50.848;4.584;2023-12-29T04:23:04;11.20;99.90
22974;DHT22;11653;50.848;4.584;2023-12-29T04:25:30;11.20;99.90
22974;DHT22;11653;50.848;4.584;2023-12-29T04:27:56;11.20;99.90
22974;DHT22;11653;50.848;4.584;2023-12-29T04:30:22;11.20;99.90
22974;DHT22;11653;50.848;4.584;2023-12-29T04:32:47;11.20;99.90
22974;DHT22;11653;50.848;4.584;2023-12-29T04:35:13;11.20;99.90
22974;DHT22;11653;50.848;4.584;2023-12-29T04:37:43;11.20;99.90
22974;DHT22;11653;50.848;4.584;2023-12-29T04:40:10;11.30;99.90
22974;DHT22;11653;50.848;4.584;2023-12-29T04:42:35;11.20;99.90
22974;DHT22;11653;50.848;4.584;2023-12-29T04:45:01;11.20;99.90
22974;DHT22;11653;50.848;4.584;2023-12-29T04:47:27;11.20;99.90
22974;DHT22;11653;50.848;4.584;2023-12-29T04:49:52;11.20;99.90
22974;DHT22;11653;50.848;4.584;2023-12-29T04:52:18;11.20;99.90
22974;DHT22;11653;50.848;4.584;2023-12-29T04:54:44;11.20;99.90
22974;DHT22;11653;50.848;4.584;2023-12-29T04:57:09;11.20;99.90
22974;DHT22;11653;50.848;4.584;2023-12-29T04:59:35;11.30;99.90
22974;DHT22;11653;50.848;4.584;2023-12-29T05:02:01;11.30;99.90
22974;DHT22;11653;50.848;4.584;2023-12-29T05:04:26;11.30;99.90
22974;DHT22;11653;50.848;4.584;2023-12-29T05:06:53;11.30;99.90
22974;DHT22;11653;50.848;4.584;2023-12-29T05:09:18;11.30;99.90
22974;DHT22;11653;50.848;4.584;2023-12-29T05:11:44;11.30;99.90
22974;DHT22;11653;50.848;4.584;2023-12-29T05:14:10;11.30;99.90
22974;DHT22;11653;50.848;4.584;2023-12-29T05:16:36;11.30;99.90
22974;DHT22;11653;50.848;4.584;2023-12-29T05:19:01;11.40;99.90
22974;DHT22;11653;50.848;4.584;2023-12-29T05:21:27;11.40;99.90
22974;DHT22;11653;50.848;4.584;2023-12-29T05:23:53;11.30;99.90
22974;DHT22;11653;50.848;4.584;2023-12-29T05:26:18;11.30;99.90
22974;DHT22;11653;50.848;4.584;2023-12-29T05:28:44;11.30;99.90
22974;DHT22;11653;50.848;4.584;2023-12-29T05:31:10;11.40;99.90
22974;DHT22;11653;50.848;4.584;2023-12-29T05:33:36;11.40;99.90
22974;DHT22;11653;50.848;4.584;2023-12-29T05:36:09;11.40;99.90
22974;DHT22;11653;50.848;4.584;2023-12-29T05:38:36;11.30;99.90
22974;DHT22;11653;50.848;4.584;2023-12-29T05:41:05;11.30;99.90
22974;DHT22;11653;50.848;4.584;2023-12-29T05:43:31;11.40;99.90
22974;DHT22;11653;50.848;4.584;2023-12-29T05:46:01;11.40;99.90
22974;DHT22;11653;50.848;4.584;2023-12-29T05:48:27;11.40;99.90
22974;DHT22;11653;50.848;4.584;2023-12-29T05:50:54;11.50;99.90
22974;DHT22;11653;50.848;4.584;2023-12-29T05:53:20;11.50;99.90
22974;DHT22;11653;50.848;4.584;2023-12-29T05:55:45;11.50;99.90
22974;DHT22;11653;50.848;4.584;2023-12-29T05:58:11;11.50;99.90
22974;DHT22;11653;50.848;4.584;2023-12-29T06:00:37;11.50;99.90
22974;DHT22;11653;50.848;4.584;2023-12-29T06:03:05;11.50;99.90
22974;DHT22;11653;50.848;4.584;2023-12-29T06:05:31;11.50;99.90
22974;DHT22;11653;50.848;4.584;2023-12-29T06:07:57;11.60;99.90
22974;DHT22;11653;50.848;4.584;2023-12-29T06:10:22;11.60;99.90
22974;DHT22;11653;50.848;4.584;2023-12-29T06:12:49;11.50;99.90
22974;DHT22;11653;50.848;4.584;2023-12-29T06:15:15;11.40;99.90
22974;DHT22;11653;50.848;4.584;2023-12-29T06:17:41;11.40;99.90
22974;DHT22;11653;50.848;4.584;2023-12-29T06:20:08;11.40;99.90
22974;DHT22;11653;50.848;4.584;2023-12-29T06:22:39;11.30;99.90
22974;DHT22;11653;50.848;4.584;2023-12-29T06:25:08;11.20;99.90
22974;DHT22;11653;50.848;4.584;2023-12-29T06:27:33;11.20;99.90
22974;DHT22;11653;50.848;4.584;2023-12-29T06:30:04;11.20;99.90
22974;DHT22;11653;50.848;4.584;2023-12-29T06:32:31;11.20;99.90
22974;DHT22;11653;50.848;4.584;2023-12-29T06:34:56;11.20;99.90
22974;DHT22;11653;50.848;4.584;2023-12-29T06:37:22;11.20;99.90
22974;DHT22;11653;50.848;4.584;2023-12-29T06:39:48;11.20;99.90
22974;DHT22;11653;50.848;4.584;2023-12-29T06:42:13;11.10;99.90
22974;DHT22;11653;50.848;4.584;2023-12-29T06:44:39;11.10;99.90
22974;DHT22;11653;50.848;4.584;2023-12-29T06:47:05;11.10;99.90
22974;DHT22;11653;50.848;4.584;2023-12-29T06:49:34;11.00;99.90
22974;DHT22;11653;50.848;4.584;2023-12-29T06:51:59;10.90;99.90
22974;DHT22;11653;50.848;4.584;2023-12-29T06:54:25;11.00;99.90
22974;DHT22;11653;50.848;4.584;2023-12-29T06:56:51;11.00;99.90
22974;DHT22;11653;50.848;4.584;2023-12-29T06:59:17;10.90;99.90
22974;DHT22;11653;50.848;4.584;2023-12-29T07:01:44;10.90;99.90
22974;DHT22;11653;50.848;4.584;2023-12-29T07:04:11;10.90;99.90
22974;DHT22;11653;50.848;4.584;2023-12-29T07:06:38;10.90;99.90
22974;DHT22;11653;50.848;4.584;2023-12-29T07:09:04;11.00;99.90
22974;DHT22;11653;50.848;4.584;2023-12-29T07:11:30;10.90;99.90
22974;DHT22;11653;50.848;4.584;2023-12-29T07:13:56;10.90;99.90
22974;DHT22;11653;50.848;4.584;2023-12-29T07:16:22;10.80;99.90
22974;DHT22;11653;50.848;4.584;2023-12-29T07:18:48;10.80;99.90
22974;DHT22;11653;50.848;4.584;2023-12-29T07:21:14;10.80;99.90
22974;DHT22;11653;50.848;4.584;2023-12-29T07:23:42;10.80;99.90
22974;DHT22;11653;50.848;4.584;2023-12-29T07:26:08;10.80;99.90
22974;DHT22;11653;50.848;4.584;2023-12-29T07:28:33;10.90;99.90
22974;DHT22;11653;50.848;4.584;2023-12-29T07:31:00;10.90;99.90
22974;DHT22;11653;50.848;4.584;2023-12-29T07:33:26;10.90;99.90
22974;DHT22;11653;50.848;4.584;2023-12-29T07:35:52;10.90;99.90
22974;DHT22;11653;50.848;4.584;2023-12-29T07:38:18;10.80;99.90
22974;DHT22;11653;50.848;4.584;2023-12-29T07:40:44;10.80;99.90
22974;DHT22;11653;50.848;4.584;2023-12-29T07:43:10;10.90;99.90
22974;DHT22;11653;50.848;4.584;2023-12-29T07:45:36;10.90;99.90
22974;DHT22;11653;50.848;4.584;2023-12-29T07:48:03;11.00;99.90
22974;DHT22;11653;50.848;4.584;2023-12-29T07:50:29;11.00;99.90
22974;DHT22;11653;50.848;4.584;2023-12-29T07:52:55;11.00;99.90
22974;DHT22;11653;50.848;4.584;2023-12-29T07:55:20;11.00;99.90
22974;DHT22;11653;50.848;4.584;2023-12-29T07:57:46;11.00;99.90
22974;DHT22;11653;50.848;4.584;2023-12-29T08:00:14;10.90;99.90
22974;DHT22;11653;50.848;4.584;2023-12-29T08:02:40;10.90;99.90
22974;DHT22;11653;50.848;4.584;2023-12-29T08:05:06;11.00;99.90
22974;DHT22;11653;50.848;4.584;2023-12-29T08:07:34;11.00;99.90
22974;DHT22;11653;50.848;4.584;2023-12-29T08:10:00;11.10;99.90
22974;DHT22;11653;50.848;4.584;2023-12-29T08:12:26;11.00;99.90
22974;DHT22;11653;50.848;4.584;2023-12-29T08:15:01;11.10;99.90
22974;DHT22;11653;50.848;4.584;2023-12-29T08:17:29;11.00;99.90
22974;DHT22;11653;50.848;4.584;2023-12-29T08:19:56;11.00;99.90
22974;DHT22;11653;50.848;4.584;2023-12-29T08:22:23;10.90;99.90
22974;DHT22;11653;50.848;4.584;2023-12-29T08:24:49;10.90;99.90
22974;DHT22;11653;50.848;4.584;2023-12-29T08:27:18;11.10;99.90
22974;DHT22;11653;50.848;4.584;2023-12-29T08:29:47;11.20;99.90
22974;DHT22;11653;50.848;4.584;2023-12-29T08:32:13;11.30;99.90
22974;DHT22;11653;50.848;4.584;2023-12-29T08:34:39;11.30;99.90
22974;DHT22;11653;50.848;4.584;2023-12-29T08:37:04;11.40;99.90
22974;DHT22;11653;50.848;4.584;2023-12-29T08:42:09;11.30;99.90
22974;DHT22;11653;50.848;4.584;2023-12-29T08:44:34;11.40;99.90
22974;DHT22;11653;50.848;4.584;2023-12-29T08:47:00;11.40;99.90
22974;DHT22;11653;50.848;4.584;2023-12-29T08:49:32;11.40;99.90
22974;DHT22;11653;50.848;4.584;2023-12-29T08:51:57;11.50;99.90
22974;DHT22;11653;50.848;4.584;2023-12-29T08:54:28;11.40;99.90
22974;DHT22;11653;50.848;4.584;2023-12-29T08:56:53;11.40;99.90
22974;DHT22;11653;50.848;4.584;2023-12-29T08:59:20;11.50;99.90
22974;DHT22;11653;50.848;4.584;2023-12-29T09:01:46;11.50;99.90
22974;DHT22;11653;50.848;4.584;2023-12-29T09:04:13;11.40;99.90
22974;DHT22;11653;50.848;4.584;2023-12-29T09:06:39;11.40;99.90
22974;DHT22;11653;50.848;4.584;2023-12-29T09:09:05;11.40;99.90
22974;DHT22;11653;50.848;4.584;2023-12-29T09:11:31;11.40;99.90
22974;DHT22;11653;50.848;4.584;2023-12-29T09:14:01;11.40;99.90
22974;DHT22;11653;50.848;4.584;2023-12-29T09:16:27;11.40;99.90
22974;DHT22;11653;50.848;4.584;2023-12-29T09:18:53;11.30;99.90
22974;DHT22;11653;50.848;4.584;2023-12-29T09:21:19;11.30;99.90
22974;DHT22;11653;50.848;4.584;2023-12-29T09:23:48;11.30;99.90
22974;DHT22;11653;50.848;4.584;2023-12-29T09:26:17;11.30;99.90
22974;DHT22;11653;50.848;4.584;2023-12-29T09:28:44;11.40;99.90
22974;DHT22;11653;50.848;4.584;2023-12-29T09:31:10;11.50;99.90
22974;DHT22;11653;50.848;4.584;2023-12-29T09:33:36;11.50;99.90
22974;DHT22;11653;50.848;4.584;2023-12-29T09:36:18;11.60;99.90
22974;DHT22;11653;50.848;4.584;2023-12-29T09:38:44;11.60;99.90
22974;DHT22;11653;50.848;4.584;2023-12-29T09:41:14;11.60;99.90
22974;DHT22;11653;50.848;4.584;2023-12-29T09:43:40;11.50;99.90
22974;DHT22;11653;50.848;4.584;2023-12-29T09:46:08;11.60;99.90
22974;DHT22;11653;50.848;4.584;2023-12-29T09:48:34;11.70;99.90
22974;DHT22;11653;50.848;4.584;2023-12-29T09:51:04;11.80;99.90
22974;DHT22;11653;50.848;4.584;2023-12-29T09:53:33;11.90;99.90
22974;DHT22;11653;50.848;4.584;2023-12-29T09:56:03;11.90;99.90
22974;DHT22;11653;50.848;4.584;2023-12-29T09:58:31;12.00;99.90
22974;DHT22;11653;50.848;4.584;2023-12-29T10:00:57;12.10;99.90
22974;DHT22;11653;50.848;4.584;2023-12-29T10:03:23;12.20;99.90
22974;DHT22;11653;50.848;4.584;2023-12-29T10:06:06;12.20;99.90
22974;DHT22;11653;50.848;4.584;2023-12-29T10:08:59;12.20;99.90
22974;DHT22;11653;50.848;4.584;2023-12-29T10:11:30;12.20;99.90
22974;DHT22;11653;50.848;4.584;2023-12-29T10:15:10;12.10;99.90
22974;DHT22;11653;50.848;4.584;2023-12-29T10:20:05;12.10;99.90
22974;DHT22;11653;50.848;4.584;2023-12-29T10:22:51;12.10;99.90
22974;DHT22;11653;50.848;4.584;2023-12-29T10:25:20;12.20;99.90
22974;DHT22;11653;50.848;4.584;2023-12-29T10:27:48;12.40;99.90
22974;DHT22;11653;50.848;4.584;2023-12-29T10:30:14;12.40;99.90
22974;DHT22;11653;50.848;4.584;2023-12-29T10:32:41;12.40;99.90
22974;DHT22;11653;50.848;4.584;2023-12-29T10:35:08;12.50;99.90
22974;DHT22;11653;50.848;4.584;2023-12-29T10:37:35;12.50;99.90
22974;DHT22;11653;50.848;4.584;2023-12-29T10:40:00;12.60;99.90
22974;DHT22;11653;50.848;4.584;2023-12-29T10:42:26;12.70;99.90
22974;DHT22;11653;50.848;4.584;2023-12-29T10:45:09;12.70;99.90
22974;DHT22;11653;50.848;4.584;2023-12-29T10:47:35;12.50;99.90
22974;DHT22;11653;50.848;4.584;2023-12-29T10:50:03;12.50;99.90
22974;DHT22;11653;50.848;4.584;2023-12-29T10:52:32;12.50;99.90
22974;DHT22;11653;50.848;4.584;2023-12-29T10:55:05;12.50;99.90
22974;DHT22;11653;50.848;4.584;2023-12-29T10:57:31;12.60;99.90
22974;DHT22;11653;50.848;4.584;2023-12-29T10:59:58;12.30;99.90
22974;DHT22;11653;50.848;4.584;2023-12-29T11:02:26;12.30;99.90
22974;DHT22;11653;50.848;4.584;2023-12-29T11:05:04;12.30;99.90
22974;DHT22;11653;50.848;4.584;2023-12-29T11:07:38;12.50;99.90
22974;DHT22;11653;50.848;4.584;2023-12-29T11:10:09;12.40;99.90
22974;DHT22;11653;50.848;4.584;2023-12-29T11:12:36;12.30;99.90
22974;DHT22;11653;50.848;4.584;2023-12-29T11:15:06;12.30;99.90
22974;DHT22;11653;50.848;4.584;2023-12-29T11:17:36;12.30;99.90
22974;DHT22;11653;50.848;4.584;2023-12-29T11:20:03;12.30;99.90
22974;DHT22;11653;50.848;4.584;2023-12-29T11:22:31;12.40;99.90
22974;DHT22;11653;50.848;4.584;2023-12-29T11:24:57;12.50;99.90
22974;DHT22;11653;50.848;4.584;2023-12-29T11:27:29;12.60;99.90
22974;DHT22;11653;50.848;4.584;2023-12-29T11:29:59;12.50;99.90
22974;DHT22;11653;50.848;4.584;2023-12-29T11:32:55;12.40;99.90
22974;DHT22;11653;50.848;4.584;2023-12-29T11:35:56;12.50;99.90
22974;DHT22;11653;50.848;4.584;2023-12-29T11:38:41;12.50;99.90
22974;DHT22;11653;50.848;4.584;2023-12-29T11:41:21;12.50;99.90
22974;DHT22;11653;50.848;4.584;2023-12-29T11:44:00;12.60;99.90
22974;DHT22;11653;50.848;4.584;2023-12-29T11:46:41;12.60;99.90
22974;DHT22;11653;50.848;4.584;2023-12-29T11:49:09;12.60;99.90
22974;DHT22;11653;50.848;4.584;2023-12-29T11:51:39;12.60;99.90
22974;DHT22;11653;50.848;4.584;2023-12-29T11:54:06;12.50;99.90
22974;DHT22;11653;50.848;4.584;2023-12-29T11:56:38;12.50;99.90
22974;DHT22;11653;50.848;4.584;2023-12-29T12:01:47;12.40;99.90
22974;DHT22;11653;50.848;4.584;2023-12-29T12:07:09;12.40;99.90
22974;DHT22;11653;50.848;4.584;2023-12-29T12:09:37;12.30;99.90
22974;DHT22;11653;50.848;4.584;2023-12-29T12:12:04;12.20;99.90
22974;DHT22;11653;50.848;4.584;2023-12-29T12:17:13;12.10;99.90
22974;DHT22;11653;50.848;4.584;2023-12-29T12:19:53;12.00;99.90
22974;DHT22;11653;50.848;4.584;2023-12-29T12:22:23;11.90;99.90
22974;DHT22;11653;50.848;4.584;2023-12-29T12:25:00;12.00;99.90
22974;DHT22;11653;50.848;4.584;2023-12-29T12:27:26;12.00;99.90
22974;DHT22;11653;50.848;4.584;2023-12-29T12:29:54;12.00;99.90
22974;DHT22;11653;50.848;4.584;2023-12-29T12:32:22;12.00;99.90
22974;DHT22;11653;50.848;4.584;2023-12-29T12:34:47;12.00;99.90
22974;DHT22;11653;50.848;4.584;2023-12-29T12:37:25;12.10;99.90
22974;DHT22;11653;50.848;4.584;2023-12-29T12:39:51;12.20;99.90
22974;DHT22;11653;50.848;4.584;2023-12-29T12:42:19;12.20;99.90
22974;DHT22;11653;50.848;4.584;2023-12-29T12:44:56;12.20;99.90
22974;DHT22;11653;50.848;4.584;2023-12-29T12:47:37;12.30;99.90
22974;DHT22;11653;50.848;4.584;2023-12-29T12:50:07;12.20;99.90
22974;DHT22;11653;50.848;4.584;2023-12-29T12:52:35;12.10;99.90
22974;DHT22;11653;50.848;4.584;2023-12-29T12:55:02;12.00;99.90
22974;DHT22;11653;50.848;4.584;2023-12-29T12:57:28;12.00;99.90
22974;DHT22;11653;50.848;4.584;2023-12-29T12:59:55;12.00;99.90
22974;DHT22;11653;50.848;4.584;2023-12-29T13:02:21;12.00;99.90
22974;DHT22;11653;50.848;4.584;2023-12-29T13:04:48;11.90;99.90
22974;DHT22;11653;50.848;4.584;2023-12-29T13:07:17;12.00;99.90
22974;DHT22;11653;50.848;4.584;2023-12-29T13:09:47;12.00;99.90
22974;DHT22;11653;50.848;4.584;2023-12-29T13:12:16;11.90;99.90
22974;DHT22;11653;50.848;4.584;2023-12-29T13:14:43;11.90;99.90
22974;DHT22;11653;50.848;4.584;2023-12-29T13:17:09;12.00;99.90
22974;DHT22;11653;50.848;4.584;2023-12-29T13:19:36;12.00;99.90
22974;DHT22;11653;50.848;4.584;2023-12-29T13:22:06;12.00;99.90
22974;DHT22;11653;50.848;4.584;2023-12-29T13:24:33;12.10;99.90
22974;DHT22;11653;50.848;4.584;2023-12-29T13:27:04;12.00;99.90
22974;DHT22;11653;50.848;4.584;2023-12-29T13:29:30;12.00;99.90
22974;DHT22;11653;50.848;4.584;2023-12-29T13:32:01;12.00;99.90
22974;DHT22;11653;50.848;4.584;2023-12-29T13:37:20;12.10;99.90
22974;DHT22;11653;50.848;4.584;2023-12-29T13:39:58;12.10;99.90
22974;DHT22;11653;50.848;4.584;2023-12-29T13:42:27;12.10;99.90
22974;DHT22;11653;50.848;4.584;2023-12-29T13:44:55;12.10;99.90
22974;DHT22;11653;50.848;4.584;2023-12-29T13:47:23;12.20;99.90
22974;DHT22;11653;50.848;4.584;2023-12-29T13:49:50;12.20;99.90
22974;DHT22;11653;50.848;4.584;2023-12-29T13:52:16;12.30;99.90
22974;DHT22;11653;50.848;4.584;2023-12-29T13:54:43;12.20;99.90
22974;DHT22;11653;50.848;4.584;2023-12-29T13:57:09;12.20;99.90
22974;DHT22;11653;50.848;4.584;2023-12-29T13:59:35;12.10;99.90
22974;DHT22;11653;50.848;4.584;2023-12-29T14:02:23;12.10;99.90
22974;DHT22;11653;50.848;4.584;2023-12-29T14:04:48;12.10;99.90
22974;DHT22;11653;50.848;4.584;2023-12-29T14:07:15;12.00;99.90
22974;DHT22;11653;50.848;4.584;2023-12-29T14:09:44;11.90;99.90
22974;DHT22;11653;50.848;4.584;2023-12-29T14:12:10;11.90;99.90
22974;DHT22;11653;50.848;4.584;2023-12-29T14:14:36;11.90;99.90
22974;DHT22;11653;50.848;4.584;2023-12-29T14:17:01;12.00;99.90
22974;DHT22;11653;50.848;4.584;2023-12-29T14:19:34;12.10;99.90
22974;DHT22;11653;50.848;4.584;2023-12-29T14:22:01;12.00;99.90
22974;DHT22;11653;50.848;4.584;2023-12-29T14:24:27;12.10;99.90
22974;DHT22;11653;50.848;4.584;2023-12-29T14:26:53;12.10;99.90
22974;DHT22;11653;50.848;4.584;2023-12-29T14:29:20;12.10;99.90
22974;DHT22;11653;50.848;4.584;2023-12-29T14:31:47;12.20;99.90
22974;DHT22;11653;50.848;4.584;2023-12-29T14:34:13;12.10;99.90
22974;DHT22;11653;50.848;4.584;2023-12-29T14:36:40;12.00;99.90
22974;DHT22;11653;50.848;4.584;2023-12-29T14:39:07;11.90;99.90
22974;DHT22;11653;50.848;4.584;2023-12-29T14:41:33;11.80;99.90
22974;DHT22;11653;50.848;4.584;2023-12-29T14:43:59;11.80;99.90
22974;DHT22;11653;50.848;4.584;2023-12-29T14:46:25;11.80;99.90
22974;DHT22;11653;50.848;4.584;2023-12-29T14:48:57;11.80;99.90
22974;DHT22;11653;50.848;4.584;2023-12-29T14:51:25;11.80;99.90
22974;DHT22;11653;50.848;4.584;2023-12-29T14:53:51;11.70;99.90
22974;DHT22;11653;50.848;4.584;2023-12-29T14:56:17;11.80;99.90
22974;DHT22;11653;50.848;4.584;2023-12-29T14:58:45;11.80;99.90
22974;DHT22;11653;50.848;4.584;2023-12-29T15:01:11;11.70;99.90
22974;DHT22;11653;50.848;4.584;2023-12-29T15:03:39;11.70;99.90
22974;DHT22;11653;50.848;4.584;2023-12-29T15:06:05;11.60;99.90
22974;DHT22;11653;50.848;4.584;2023-12-29T15:08:31;11.60;99.90
22974;DHT22;11653;50.848;4.584;2023-12-29T15:11:01;11.60;99.90
22974;DHT22;11653;50.848;4.584;2023-12-29T15:13:33;11.60;99.90
22974;DHT22;11653;50.848;4.584;2023-12-29T15:16:00;11.60;99.90
22974;DHT22;11653;50.848;4.584;2023-12-29T15:18:32;11.60;99.90
22974;DHT22;11653;50.848;4.584;2023-12-29T15:20:57;11.60;99.90
22974;DHT22;11653;50.848;4.584;2023-12-29T15:23:23;11.70;99.90
22974;DHT22;11653;50.848;4.584;2023-12-29T15:25:49;11.60;99.90
22974;DHT22;11653;50.848;4.584;2023-12-29T15:28:22;11.60;99.90
22974;DHT22;11653;50.848;4.584;2023-12-29T15:30:47;11.60;99.90
22974;DHT22;11653;50.848;4.584;2023-12-29T15:33:14;11.60;99.90
22974;DHT22;11653;50.848;4.584;2023-12-29T15:35:40;11.70;99.90
22974;DHT22;11653;50.848;4.584;2023-12-29T15:38:06;11.70;99.90
22974;DHT22;11653;50.848;4.584;2023-12-29T15:40:32;11.80;99.90
22974;DHT22;11653;50.848;4.584;2023-12-29T15:43:00;11.70;99.90
22974;DHT22;11653;50.848;4.584;2023-12-29T15:45:25;11.70;99.90
22974;DHT22;11653;50.848;4.584;2023-12-29T15:48:11;11.70;99.90
22974;DHT22;11653;50.848;4.584;2023-12-29T15:50:40;11.70;99.90
22974;DHT22;11653;50.848;4.584;2023-12-29T15:53:06;11.70;99.90
22974;DHT22;11653;50.848;4.584;2023-12-29T15:55:39;11.80;99.90